Time;durP1;ratioP1;P1;durP2;ratioP2;P2;SDS_P1;SDS_P2;PMS_P1;PMS_P2;Temp;Humidity;BMP_temperature;BMP_pressure;BME280_temperature;BME280_humidity;BME280_pressure;Samples;Min_cycle;Max_cycle;Signal;HPM_P1;HPM_P2
2024/01/15 00:01:17;;;;;;;15.98;2.10;;;0.80;99.90;;;;;;4872149;29;20064;-48
2024/01/15 00:03:42;;;;;;;10.55;2.10;;;0.70;99.90;;;;;;4875462;29;20081;-47
2024/01/15 00:06:08;;;;;;;14.68;2.15;;;0.70;99.90;;;;;;4874144;29;20152;-46
2024/01/15 00:08:34;;;;;;;12.05;1.50;;;0.80;99.90;;;;;;4874070;29;20064;-45
2024/01/15 00:10:59;;;;;;;10.65;1.67;;;0.50;99.90;;;;;;4874233;29;20037;-46
2024/01/15 00:13:25;;;;;;;9.80;1.85;;;0.60;99.90;;;;;;4872949;29;20053;-45
2024/01/15 00:15:51;;;;;;;15.07;1.77;;;0.60;99.90;;;;;;4873748;29;20481;-48
2024/01/15 00:18:16;;;;;;;13.55;2.10;;;0.60;99.90;;;;;;4874398;29;20131;-47
2024/01/15 00:20:42;;;;;;;11.77;1.52;;;0.60;99.90;;;;;;4873564;29;20077;-46
2024/01/15 00:23:07;;;;;;;12.90;2.17;;;0.70;99.90;;;;;;4874464;29;20037;-46
2024/01/15 00:25:33;;;;;;;11.95;1.75;;;0.70;99.90;;;;;;4875033;29;20464;-47
2024/01/15 00:27:59;;;;;;;16.70;2.03;;;0.90;99.90;;;;;;4875016;29;20052;-46
2024/01/15 00:30:24;;;;;;;9.48;1.38;;;0.70;99.90;;;;;;4877945;29;20412;-47
2024/01/15 00:32:50;;;;;;;14.48;2.13;;;0.60;99.90;;;;;;4878396;29;20052;-46
2024/01/15 00:35:15;;;;;;;15.70;2.03;;;0.70;99.90;;;;;;4877441;29;20048;-47
2024/01/15 00:37:41;;;;;;;15.25;2.00;;;0.70;99.90;;;;;;4877891;29;20064;-46
2024/01/15 00:40:07;;;;;;;19.83;2.30;;;0.60;99.90;;;;;;4877463;29;20048;-46
2024/01/15 00:42:34;;;;;;;18.05;2.03;;;0.80;99.90;;;;;;4876186;29;20176;-46
2024/01/15 00:44:59;;;;;;;15.32;2.35;;;0.70;99.90;;;;;;4877843;29;20037;-47
2024/01/15 00:47:25;;;;;;;19.67;2.45;;;0.70;99.90;;;;;;4878271;29;20044;-46
2024/01/15 00:49:51;;;;;;;13.55;2.30;;;0.80;99.90;;;;;;4877799;29;20056;-45
2024/01/15 00:52:17;;;;;;;8.90;1.73;;;0.60;99.90;;;;;;4878272;29;20061;-45
2024/01/15 00:54:42;;;;;;;16.50;1.90;;;0.70;99.90;;;;;;4877814;29;20132;-44
2024/01/15 00:57:08;;;;;;;15.27;2.03;;;0.70;99.90;;;;;;4878072;29;20531;-47
2024/01/15 00:59:33;;;;;;;9.70;1.95;;;0.60;99.90;;;;;;4878080;29;20105;-47
2024/01/15 01:01:59;;;;;;;10.10;1.90;;;0.90;99.90;;;;;;4874073;29;20119;-50
2024/01/15 01:04:25;;;;;;;13.05;2.05;;;0.70;99.90;;;;;;4873395;29;20044;-47
2024/01/15 01:06:50;;;;;;;17.73;2.40;;;0.70;99.90;;;;;;4871552;29;20089;-47
2024/01/15 01:09:16;;;;;;;14.02;2.08;;;0.60;99.90;;;;;;4870884;29;20049;-49
2024/01/15 01:11:41;;;;;;;21.23;2.17;;;0.60;99.90;;;;;;4870892;29;20373;-47
2024/01/15 01:14:07;;;;;;;9.88;1.63;;;0.50;99.90;;;;;;4871656;29;20112;-45
2024/01/15 01:16:38;;;;;;;19.33;2.58;;;0.50;99.90;;;;;;4871214;29;20048;-46
2024/01/15 01:19:07;;;;;;;14.38;2.13;;;0.60;99.90;;;;;;4874655;29;20051;-46
2024/01/15 01:21:33;;;;;;;14.23;2.25;;;0.60;99.90;;;;;;4873486;29;20059;-47
2024/01/15 01:23:59;;;;;;;11.85;1.85;;;0.70;99.90;;;;;;4870277;29;20039;-45
2024/01/15 01:26:25;;;;;;;14.65;1.80;;;1.00;99.90;;;;;;4870243;29;20041;-45
2024/01/15 01:28:50;;;;;;;18.05;2.13;;;1.00;99.90;;;;;;4870801;29;20098;-46
2024/01/15 01:31:16;;;;;;;17.42;2.45;;;0.90;99.90;;;;;;4872558;29;20045;-45
2024/01/15 01:33:42;;;;;;;17.90;2.30;;;1.00;99.90;;;;;;4875431;29;20484;-45
2024/01/15 01:36:10;;;;;;;16.42;1.70;;;1.00;99.90;;;;;;4872442;29;20048;-46
2024/01/15 01:38:37;;;;;;;15.82;2.47;;;1.10;99.90;;;;;;4874742;29;20447;-47
2024/01/15 01:41:03;;;;;;;13.60;2.15;;;;;;;;;;4856494;29;20146;-46
2024/01/15 01:43:28;;;;;;;11.27;1.88;;;0.90;99.90;;;;;;4871424;29;20368;-46
2024/01/15 01:45:56;;;;;;;13.63;1.70;;;0.80;99.90;;;;;;4871148;29;20040;-46
2024/01/15 01:48:24;;;;;;;18.83;2.38;;;0.90;99.90;;;;;;4872559;29;20428;-48
2024/01/15 01:50:50;;;;;;;16.83;1.80;;;0.90;99.90;;;;;;4871044;29;20056;-46
2024/01/15 01:53:17;;;;;;;14.73;2.17;;;1.00;99.90;;;;;;4873909;29;20140;-47
2024/01/15 01:55:43;;;;;;;11.85;2.00;;;1.00;99.90;;;;;;4869575;29;20067;-46
2024/01/15 01:58:09;;;;;;;12.43;1.80;;;1.10;99.90;;;;;;4871163;29;20049;-46
2024/01/15 02:00:35;;;;;;;13.73;1.73;;;;;;;;;;4867323;29;20049;-45
2024/01/15 02:03:03;;;;;;;13.15;1.70;;;1.30;99.90;;;;;;4866950;29;20505;-46
2024/01/15 02:05:30;;;;;;;17.63;1.92;;;1.30;99.90;;;;;;4869149;29;20626;-47
2024/01/15 02:07:55;;;;;;;13.15;1.73;;;1.40;99.90;;;;;;4874119;29;20041;-49
2024/01/15 02:10:21;;;;;;;10.88;1.73;;;1.50;99.90;;;;;;4873110;29;20047;-47
2024/01/15 02:12:48;;;;;;;14.63;2.00;;;1.50;99.90;;;;;;4855015;29;20120;-47
2024/01/15 02:15:14;;;;;;;13.50;2.00;;;1.50;99.90;;;;;;4873430;29;20849;-46
2024/01/15 02:18:01;;;;;;;8.52;1.50;;;1.50;99.90;;;;;;4854154;29;20138;-46
2024/01/15 02:20:27;;;;;;;8.20;1.47;;;1.60;99.90;;;;;;4869054;29;20049;-45
2024/01/15 02:22:53;;;;;;;11.57;1.40;;;1.50;99.90;;;;;;4871184;29;20315;-45
2024/01/15 02:25:19;;;;;;;9.65;1.58;;;1.60;99.90;;;;;;4872817;29;20136;-47
2024/01/15 02:27:46;;;;;;;11.50;1.55;;;1.60;99.90;;;;;;4868889;29;20077;-46
2024/01/15 02:30:12;;;;;;;10.32;1.60;;;1.50;99.90;;;;;;4876744;29;20045;-46
2024/01/15 02:32:38;;;;;;;13.90;1.70;;;1.50;99.90;;;;;;4876515;29;20045;-46
2024/01/15 02:35:04;;;;;;;5.55;1.00;;;1.60;99.90;;;;;;4859698;29;20463;-46
2024/01/15 02:37:30;;;;;;;10.13;1.38;;;1.60;99.90;;;;;;4859205;29;20532;-46
2024/01/15 02:39:55;;;;;;;5.80;0.98;;;1.50;99.90;;;;;;4876435;29;20073;-45
2024/01/15 02:42:21;;;;;;;9.10;1.00;;;1.50;99.90;;;;;;4873582;29;20049;-45
2024/01/15 02:44:48;;;;;;;6.57;0.90;;;1.50;99.90;;;;;;4855602;29;20489;-47
2024/01/15 02:47:14;;;;;;;9.30;1.17;;;1.60;99.90;;;;;;4873456;29;20108;-45
2024/01/15 02:49:40;;;;;;;5.72;0.95;;;1.50;99.90;;;;;;4870798;29;20048;-45
2024/01/15 02:52:06;;;;;;;9.60;1.30;;;1.40;99.90;;;;;;4871198;29;20131;-47
2024/01/15 02:54:31;;;;;;;5.18;0.93;;;1.40;99.90;;;;;;4872263;29;20041;-45
2024/01/15 02:56:57;;;;;;;5.47;1.02;;;1.40;99.90;;;;;;4870104;29;20037;-46
2024/01/15 02:59:22;;;;;;;6.82;0.98;;;1.40;99.90;;;;;;4874282;29;20037;-45
2024/01/15 03:01:48;;;;;;;4.50;0.80;;;1.40;99.90;;;;;;4859205;29;20400;-45
2024/01/15 03:04:14;;;;;;;5.22;1.13;;;1.40;99.90;;;;;;4872810;29;20109;-46
2024/01/15 03:06:39;;;;;;;5.10;0.75;;;1.40;99.90;;;;;;4870562;29;20073;-46
2024/01/15 03:09:05;;;;;;;7.95;1.30;;;1.30;99.90;;;;;;4871111;29;20835;-45
2024/01/15 03:11:38;;;;;;;4.53;0.95;;;1.20;99.90;;;;;;4870092;29;20056;-47
2024/01/15 03:14:03;;;;;;;8.82;1.20;;;1.20;99.90;;;;;;4874730;29;20396;-47
2024/01/15 03:16:29;;;;;;;6.50;1.00;;;1.30;99.90;;;;;;4869610;29;20056;-49
2024/01/15 03:18:54;;;;;;;4.97;0.80;;;1.30;99.90;;;;;;4869755;29;20045;-46
2024/01/15 03:21:20;;;;;;;3.50;0.88;;;1.40;99.90;;;;;;4869700;29;20041;-46
2024/01/15 03:23:45;;;;;;;6.88;1.10;;;1.30;99.90;;;;;;4869673;29;20462;-48
2024/01/15 03:26:11;;;;;;;5.18;0.75;;;1.40;99.90;;;;;;4872992;29;20048;-46
2024/01/15 03:28:36;;;;;;;9.30;1.00;;;1.30;99.90;;;;;;4869788;29;20456;-47
2024/01/15 03:31:02;;;;;;;6.10;0.77;;;1.30;99.90;;;;;;4871206;29;20069;-45
2024/01/15 03:33:28;;;;;;;4.90;0.90;;;1.20;99.90;;;;;;4850853;29;20064;-45
2024/01/15 03:35:53;;;;;;;9.90;1.13;;;1.10;99.90;;;;;;4868493;29;20467;-46
2024/01/15 03:38:19;;;;;;;5.43;0.90;;;1.20;99.90;;;;;;4873012;29;20041;-46
2024/01/15 03:40:45;;;;;;;9.65;1.30;;;1.10;99.90;;;;;;4874556;29;20120;-45
2024/01/15 03:43:10;;;;;;;7.88;1.20;;;1.00;99.90;;;;;;4872795;29;20056;-47
2024/01/15 03:45:36;;;;;;;4.60;1.00;;;1.00;99.90;;;;;;4872512;29;20044;-46
2024/01/15 03:48:01;;;;;;;6.78;1.60;;;1.00;99.90;;;;;;4873098;29;20045;-45
2024/01/15 03:50:27;;;;;;;6.97;0.93;;;1.10;99.90;;;;;;4874545;29;20132;-45
2024/01/15 03:52:53;;;;;;;10.15;1.20;;;1.00;99.90;;;;;;4871666;29;21355;-47
2024/01/15 03:55:18;;;;;;;9.85;1.25;;;1.00;99.90;;;;;;4871900;29;20045;-45
2024/01/15 03:57:44;;;;;;;6.75;1.42;;;1.00;99.90;;;;;;4871927;29;20041;-46
2024/01/15 04:00:10;;;;;;;12.15;1.55;;;1.00;99.90;;;;;;4872356;29;20033;-45
2024/01/15 04:02:35;;;;;;;11.60;1.13;;;1.20;99.90;;;;;;4868478;29;20233;-46
2024/01/15 04:05:01;;;;;;;13.75;1.15;;;1.20;99.90;;;;;;4871401;29;20135;-48
2024/01/15 04:07:26;;;;;;;12.32;1.70;;;1.20;99.90;;;;;;4870984;29;20393;-45
2024/01/15 04:09:52;;;;;;;9.10;1.50;;;1.20;99.90;;;;;;4870646;29;20072;-46
2024/01/15 04:12:18;;;;;;;13.07;1.73;;;1.30;99.90;;;;;;4876994;29;20049;-46
2024/01/15 04:14:43;;;;;;;13.32;1.42;;;1.20;99.90;;;;;;4873690;29;20036;-45
2024/01/15 04:17:09;;;;;;;13.23;1.98;;;1.30;99.90;;;;;;4871659;29;20088;-45
2024/01/15 04:19:34;;;;;;;13.52;2.08;;;1.30;99.90;;;;;;4875231;29;20068;-45
2024/01/15 04:22:00;;;;;;;16.40;1.95;;;1.20;99.90;;;;;;4871506;29;20677;-46
2024/01/15 04:24:26;;;;;;;13.80;1.95;;;1.20;99.90;;;;;;4871514;29;20037;-47
2024/01/15 04:26:51;;;;;;;14.18;1.67;;;1.20;99.90;;;;;;4870918;29;20124;-47
2024/01/15 04:29:17;;;;;;;14.55;2.25;;;1.10;99.90;;;;;;4868232;29;20053;-45
2024/01/15 04:31:42;;;;;;;12.43;1.95;;;1.10;99.90;;;;;;4871414;29;20044;-45
2024/01/15 04:34:08;;;;;;;13.00;1.65;;;1.10;99.90;;;;;;4871063;29;20510;-46
2024/01/15 04:36:40;;;;;;;13.63;1.75;;;1.20;99.90;;;;;;4872246;29;20060;-46
2024/01/15 04:39:06;;;;;;;14.32;1.70;;;1.30;99.90;;;;;;4869377;29;20178;-47
2024/01/15 04:41:31;;;;;;;11.70;1.55;;;1.20;99.90;;;;;;4868336;29;20499;-45
2024/01/15 04:43:57;;;;;;;9.18;1.98;;;1.30;99.90;;;;;;4870666;29;20045;-45
2024/01/15 04:46:22;;;;;;;8.80;1.70;;;1.20;99.90;;;;;;4871852;29;20132;-45
2024/01/15 04:48:48;;;;;;;11.32;2.13;;;1.30;99.90;;;;;;4872377;29;20051;-45
2024/01/15 04:51:13;;;;;;;14.45;2.22;;;1.30;99.90;;;;;;4872351;29;20136;-45
2024/01/15 04:53:39;;;;;;;13.90;1.80;;;1.40;99.90;;;;;;4873601;29;20053;-46
2024/01/15 04:56:05;;;;;;;13.82;2.30;;;1.20;99.90;;;;;;4872630;29;20055;-46
2024/01/15 04:58:30;;;;;;;17.63;2.33;;;1.20;99.90;;;;;;4866236;29;20033;-45
2024/01/15 05:00:56;;;;;;;9.57;1.90;;;1.10;99.90;;;;;;4869902;29;20045;-45
2024/01/15 05:03:22;;;;;;;8.70;1.63;;;1.30;99.90;;;;;;4853465;29;20048;-46
2024/01/15 05:05:47;;;;;;;9.77;1.75;;;1.10;99.90;;;;;;4870983;29;20130;-46
2024/01/15 05:08:13;;;;;;;10.07;1.50;;;1.10;99.90;;;;;;4868963;29;20433;-46
2024/01/15 05:10:38;;;;;;;11.75;1.67;;;1.10;99.90;;;;;;4870013;29;20820;-46
2024/01/15 05:13:04;;;;;;;14.30;2.08;;;1.00;99.90;;;;;;4871353;29;20384;-45
2024/01/15 05:15:29;;;;;;;14.98;2.30;;;1.20;99.90;;;;;;4871680;29;20053;-47
2024/01/15 05:17:55;;;;;;;8.55;1.42;;;1.10;99.90;;;;;;4870456;29;20127;-47
2024/01/15 05:20:21;;;;;;;8.98;1.40;;;1.20;99.90;;;;;;4869791;29;20056;-45
2024/01/15 05:22:47;;;;;;;8.07;1.73;;;1.30;99.90;;;;;;4871194;29;20045;-46
2024/01/15 05:25:13;;;;;;;11.70;1.90;;;1.30;99.90;;;;;;4876030;29;20053;-49
2024/01/15 05:27:38;;;;;;;18.48;1.95;;;1.20;99.90;;;;;;4870285;29;20057;-44
2024/01/15 05:30:04;;;;;;;11.73;1.45;;;1.30;99.90;;;;;;4871640;29;20048;-46
2024/01/15 05:32:30;;;;;;;8.15;1.25;;;1.20;99.90;;;;;;4871315;29;20488;-45
2024/01/15 05:34:55;;;;;;;13.98;2.05;;;1.10;99.90;;;;;;4871036;29;20047;-44
2024/01/15 05:37:21;;;;;;;9.57;1.15;;;1.10;99.90;;;;;;4870893;29;20049;-47
2024/01/15 05:39:46;;;;;;;10.40;1.42;;;1.00;99.90;;;;;;4868428;29;20039;-45
2024/01/15 05:42:12;;;;;;;10.40;1.40;;;1.00;99.90;;;;;;4870271;29;20044;-46
2024/01/15 05:44:38;;;;;;;10.18;1.20;;;0.90;99.90;;;;;;4872089;29;20255;-45
2024/01/15 05:47:04;;;;;;;17.48;1.67;;;0.90;99.90;;;;;;4864589;29;20049;-46
2024/01/15 05:49:30;;;;;;;7.50;1.23;;;0.90;99.90;;;;;;4869272;29;20123;-45
2024/01/15 05:51:55;;;;;;;10.40;1.85;;;0.80;99.90;;;;;;4869474;29;20563;-45
2024/01/15 05:54:21;;;;;;;10.57;1.27;;;0.70;99.90;;;;;;4870728;29;20100;-46
2024/01/15 05:56:46;;;;;;;12.40;1.40;;;0.60;99.90;;;;;;4871082;29;20072;-46
2024/01/15 05:59:12;;;;;;;12.55;1.38;;;0.70;99.90;;;;;;4871558;29;20068;-46
2024/01/15 06:01:38;;;;;;;7.50;1.17;;;0.70;99.90;;;;;;4872609;29;20464;-45
2024/01/15 06:04:03;;;;;;;12.65;1.38;;;0.90;99.90;;;;;;4871351;29;20048;-46
2024/01/15 06:06:29;;;;;;;13.75;1.52;;;0.80;99.90;;;;;;4869622;29;20044;-46
2024/01/15 06:08:55;;;;;;;10.73;1.60;;;0.80;99.90;;;;;;4870682;29;20045;-46
2024/01/15 06:11:20;;;;;;;12.00;1.58;;;1.00;99.90;;;;;;4867384;29;20045;-46
2024/01/15 06:13:46;;;;;;;12.32;1.55;;;0.90;99.90;;;;;;4869769;29;20053;-46
2024/01/15 06:16:14;;;;;;;8.55;1.35;;;1.00;99.90;;;;;;4873301;29;20412;-46
2024/01/15 06:18:40;;;;;;;10.98;1.60;;;1.10;99.90;;;;;;4873496;29;20512;-46
2024/01/15 06:21:05;;;;;;;8.18;1.38;;;1.10;99.90;;;;;;4873562;29;20064;-46
2024/01/15 06:23:31;;;;;;;12.73;1.40;;;0.90;99.90;;;;;;4868008;29;20493;-46
2024/01/15 06:25:56;;;;;;;8.38;1.42;;;1.00;99.90;;;;;;4871000;29;20069;-46
2024/01/15 06:28:22;;;;;;;10.65;1.75;;;0.90;99.90;;;;;;4869960;29;20421;-46
2024/01/15 06:30:48;;;;;;;13.15;1.70;;;1.00;99.90;;;;;;4870749;29;20072;-46
2024/01/15 06:33:13;;;;;;;8.75;1.40;;;1.10;99.90;;;;;;4872729;29;20052;-47
2024/01/15 06:35:39;;;;;;;8.43;1.33;;;1.00;99.90;;;;;;4869052;29;20072;-48
2024/01/15 06:38:04;;;;;;;13.90;1.90;;;1.00;99.90;;;;;;4864469;29;20329;-46
2024/01/15 06:40:30;;;;;;;9.02;2.17;;;0.90;99.90;;;;;;4864186;29;20105;-44
2024/01/15 06:42:56;;;;;;;6.82;1.42;;;1.00;99.90;;;;;;4868966;29;20107;-45
2024/01/15 06:45:21;;;;;;;6.05;1.00;;;0.90;99.90;;;;;;4869632;29;20069;-46
2024/01/15 06:47:47;;;;;;;10.85;1.55;;;1.00;99.90;;;;;;4852434;29;20127;-47
2024/01/15 06:50:12;;;;;;;7.05;1.08;;;1.00;99.90;;;;;;4868341;29;20045;-46
2024/01/15 06:52:38;;;;;;;5.97;1.17;;;0.80;99.90;;;;;;4870764;29;20144;-46
2024/01/15 06:55:05;;;;;;;9.95;1.25;;;0.80;99.90;;;;;;4866056;29;20053;-45
2024/01/15 06:57:31;;;;;;;6.72;1.20;;;0.90;99.90;;;;;;4869193;29;20053;-46
2024/01/15 06:59:56;;;;;;;11.95;1.15;;;0.80;99.90;;;;;;4873612;29;20395;-46
2024/01/15 07:02:22;;;;;;;8.70;1.20;;;0.80;99.90;;;;;;4871067;29;20056;-45
2024/01/15 07:04:48;;;;;;;6.63;1.30;;;0.80;99.90;;;;;;4869740;29;20080;-45
2024/01/15 07:07:13;;;;;;;9.30;1.52;;;0.80;99.90;;;;;;4870473;29;20485;-45
2024/01/15 07:09:39;;;;;;;7.20;1.55;;;0.70;99.90;;;;;;4869097;29;20053;-45
2024/01/15 07:12:05;;;;;;;9.73;1.48;;;0.50;99.90;;;;;;4872194;29;20052;-46
2024/01/15 07:14:30;;;;;;;13.50;1.60;;;0.50;99.90;;;;;;4872984;29;20520;-46
2024/01/15 07:16:56;;;;;;;9.70;1.70;;;0.40;99.90;;;;;;4872678;29;20079;-45
2024/01/15 07:19:21;;;;;;;9.95;1.60;;;0.50;99.90;;;;;;4870461;29;20044;-48
2024/01/15 07:21:47;;;;;;;10.38;2.08;;;0.40;99.90;;;;;;4874563;29;21351;-47
2024/01/15 07:24:13;;;;;;;7.85;2.00;;;0.30;99.90;;;;;;4870401;29;20049;-47
2024/01/15 07:26:38;;;;;;;11.32;2.08;;;0.40;99.90;;;;;;4873655;29;20068;-46
2024/01/15 07:29:04;;;;;;;12.70;2.10;;;0.40;99.90;;;;;;4872927;29;20033;-45
2024/01/15 07:31:30;;;;;;;15.02;2.17;;;0.40;99.90;;;;;;4859254;29;20057;-48
2024/01/15 07:33:55;;;;;;;14.02;2.33;;;0.40;99.90;;;;;;4873920;29;20060;-45
2024/01/15 07:36:21;;;;;;;18.70;2.65;;;0.40;99.90;;;;;;4870919;29;20049;-47
2024/01/15 07:38:47;;;;;;;12.25;2.53;;;0.40;99.90;;;;;;4873691;29;20525;-46
2024/01/15 07:41:13;;;;;;;11.25;3.20;;;0.70;99.90;;;;;;4871181;29;20192;-46
2024/01/15 07:43:39;;;;;;;15.50;2.03;;;0.60;99.90;;;;;;4873643;29;20041;-48
2024/01/15 07:46:05;;;;;;;15.48;2.10;;;0.60;99.90;;;;;;4870437;29;20398;-46
2024/01/15 07:48:30;;;;;;;12.88;2.00;;;0.50;99.90;;;;;;4872692;29;20045;-47
2024/01/15 07:50:56;;;;;;;11.32;2.08;;;0.40;99.90;;;;;;4876284;29;20060;-46
2024/01/15 07:53:21;;;;;;;18.83;2.28;;;0.70;99.90;;;;;;4871508;29;20069;-47
2024/01/15 07:55:47;;;;;;;17.08;2.30;;;0.70;99.90;;;;;;4871264;29;21920;-46
2024/01/15 07:58:13;;;;;;;11.32;1.90;;;0.70;99.90;;;;;;4870794;29;20052;-46
2024/01/15 08:00:38;;;;;;;9.98;1.90;;;0.60;99.90;;;;;;4870762;29;20105;-46
2024/01/15 08:03:04;;;;;;;13.50;2.30;;;0.50;99.90;;;;;;4876388;29;20131;-47
2024/01/15 08:05:30;;;;;;;14.13;2.10;;;0.50;99.90;;;;;;4873208;29;20060;-45
2024/01/15 08:07:55;;;;;;;16.42;2.10;;;0.40;99.90;;;;;;4875715;29;20120;-47
2024/01/15 08:10:21;;;;;;;16.33;2.60;;;0.60;99.90;;;;;;4872569;29;20136;-45
2024/01/15 08:12:47;;;;;;;13.40;2.05;;;0.40;99.90;;;;;;4868387;29;20092;-45
2024/01/15 08:15:12;;;;;;;14.00;1.90;;;0.40;99.90;;;;;;4878939;29;20053;-45
2024/01/15 08:17:38;;;;;;;14.57;2.05;;;0.60;99.90;;;;;;4875968;29;20049;-46
2024/01/15 08:20:04;;;;;;;12.63;1.77;;;0.60;99.90;;;;;;4871324;29;20044;-47
2024/01/15 08:22:30;;;;;;;14.00;2.25;;;0.60;99.90;;;;;;4875128;29;20073;-46
2024/01/15 08:24:56;;;;;;;13.60;1.65;;;0.70;99.90;;;;;;4872279;29;20088;-47
2024/01/15 08:27:21;;;;;;;18.35;2.30;;;0.50;99.90;;;;;;4866541;29;20468;-48
2024/01/15 08:29:47;;;;;;;9.60;1.95;;;0.50;99.90;;;;;;4872839;29;20045;-46
2024/01/15 08:32:15;;;;;;;13.32;1.98;;;0.70;99.90;;;;;;4867669;29;20108;-46
2024/01/15 08:34:41;;;;;;;10.57;1.63;;;0.70;99.90;;;;;;4881617;29;20183;-45
2024/01/15 08:37:07;;;;;;;9.73;1.98;;;0.50;99.90;;;;;;4875890;29;20113;-46
2024/01/15 08:39:33;;;;;;;16.63;1.92;;;0.50;99.90;;;;;;4874380;29;20051;-45
2024/01/15 08:41:58;;;;;;;15.82;1.75;;;0.70;99.90;;;;;;4861315;29;20051;-46
2024/01/15 08:44:24;;;;;;;9.23;1.50;;;0.40;99.90;;;;;;4877821;29;20437;-45
2024/01/15 08:46:49;;;;;;;12.38;1.85;;;0.60;99.90;;;;;;4877048;29;20140;-46
2024/01/15 08:49:15;;;;;;;12.88;1.75;;;0.50;99.90;;;;;;4874965;29;21948;-46
2024/01/15 08:51:41;;;;;;;14.95;2.00;;;0.70;99.90;;;;;;4860382;29;20427;-47
2024/01/15 08:54:08;;;;;;;17.88;2.30;;;0.50;99.90;;;;;;4879752;29;20120;-46
2024/01/15 08:56:34;;;;;;;18.57;2.23;;;0.70;99.90;;;;;;4880641;29;20053;-47
2024/01/15 08:58:59;;;;;;;12.18;2.05;;;0.70;99.90;;;;;;4872955;29;20192;-46
2024/01/15 09:01:25;;;;;;;8.88;1.77;;;0.90;99.90;;;;;;4871135;29;20052;-47
2024/01/15 09:03:51;;;;;;;11.77;2.22;;;0.90;99.90;;;;;;4874739;29;20053;-46
2024/01/15 09:06:16;;;;;;;8.13;1.77;;;1.00;99.90;;;;;;4864359;29;20128;-46
2024/01/15 09:08:42;;;;;;;11.80;2.10;;;0.90;99.90;;;;;;4877378;29;20076;-48
2024/01/15 09:11:07;;;;;;;14.48;1.75;;;1.00;99.90;;;;;;4875396;29;20037;-45
2024/01/15 09:13:33;;;;;;;10.48;1.67;;;1.00;99.90;;;;;;4877275;29;20068;-46
2024/01/15 09:15:59;;;;;;;10.95;1.55;;;1.30;99.90;;;;;;4877757;29;20053;-47
2024/01/15 09:18:25;;;;;;;13.90;2.15;;;1.20;99.90;;;;;;4880280;29;20093;-47
2024/01/15 09:20:51;;;;;;;12.13;1.75;;;1.20;99.90;;;;;;4882667;29;20080;-47
2024/01/15 09:23:16;;;;;;;11.02;1.90;;;1.20;99.90;;;;;;4864254;29;20048;-46
2024/01/15 09:25:42;;;;;;;8.98;1.80;;;1.30;99.90;;;;;;4877454;29;20052;-46
2024/01/15 09:28:08;;;;;;;12.82;1.85;;;1.20;99.90;;;;;;4876573;29;20504;-46
2024/01/15 09:30:33;;;;;;;13.68;1.65;;;1.10;99.90;;;;;;4879295;29;20412;-47
2024/01/15 09:32:59;;;;;;;12.93;2.22;;;1.20;99.90;;;;;;4881690;29;20104;-45
2024/01/15 09:35:24;;;;;;;12.18;1.67;;;1.30;99.90;;;;;;4876695;29;20088;-47
2024/01/15 09:37:50;;;;;;;6.70;1.40;;;1.40;99.90;;;;;;4879933;29;20037;-46
2024/01/15 09:40:20;;;;;;;8.40;1.25;;;1.50;99.90;;;;;;4880768;29;20107;-46
2024/01/15 09:42:46;;;;;;;9.70;1.50;;;1.70;99.90;;;;;;4879568;29;20056;-47
2024/01/15 09:45:13;;;;;;;9.95;1.95;;;1.90;99.90;;;;;;4884493;29;20532;-46
2024/01/15 09:47:40;;;;;;;8.57;1.90;;;2.50;99.90;;;;;;4879250;29;20045;-47
2024/01/15 09:50:06;;;;;;;8.75;1.50;;;2.70;99.90;;;;;;4878063;29;20068;-46
2024/01/15 09:52:33;;;;;;;8.10;1.55;;;2.60;99.90;;;;;;4861582;29;20041;-47
2024/01/15 09:55:01;;;;;;;7.47;1.40;;;2.60;99.90;;;;;;4877170;29;20052;-47
2024/01/15 09:57:26;;;;;;;7.35;1.42;;;2.50;99.90;;;;;;4877377;29;20601;-47
2024/01/15 09:59:54;;;;;;;8.75;1.73;;;2.30;99.90;;;;;;4876555;29;20132;-47
2024/01/15 10:02:20;;;;;;;9.35;1.67;;;2.20;99.90;;;;;;4876270;29;20059;-46
2024/01/15 10:04:46;;;;;;;11.43;2.60;;;2.20;99.90;;;;;;4874985;29;20049;-45
2024/01/15 10:07:19;;;;;;;10.40;1.75;;;2.20;99.90;;;;;;4876140;29;20049;-45
2024/01/15 10:09:45;;;;;;;9.50;1.75;;;2.20;99.90;;;;;;4876245;29;20453;-47
2024/01/15 10:12:11;;;;;;;8.00;2.15;;;2.10;99.90;;;;;;4877862;29;20155;-46
2024/01/15 10:14:37;;;;;;;10.35;1.80;;;2.10;99.90;;;;;;4876315;29;20112;-46
2024/01/15 10:17:14;;;;;;;8.07;1.58;;;2.20;99.90;;;;;;4876153;29;20041;-45
2024/01/15 10:19:41;;;;;;;10.73;2.05;;;2.10;99.90;;;;;;4876145;29;20453;-45
2024/01/15 10:22:09;;;;;;;9.57;1.83;;;2.00;99.90;;;;;;4877186;29;20055;-45
2024/01/15 10:24:40;;;;;;;9.77;1.70;;;2.00;99.90;;;;;;4873899;29;20041;-46
2024/01/15 10:27:07;;;;;;;10.38;1.60;;;1.90;99.90;;;;;;4876032;29;20399;-46
2024/01/15 10:29:32;;;;;;;11.38;1.58;;;2.00;99.90;;;;;;4876169;29;20414;-46
2024/01/15 10:31:59;;;;;;;7.40;1.75;;;1.90;99.90;;;;;;4876045;29;20128;-45
2024/01/15 10:34:25;;;;;;;8.18;1.20;;;2.00;99.90;;;;;;4875815;29;20418;-45
2024/01/15 10:36:55;;;;;;;6.78;1.50;;;2.10;99.90;;;;;;4875466;29;20484;-46
2024/01/15 10:39:24;;;;;;;7.45;1.60;;;2.30;99.90;;;;;;4874817;29;20045;-46
2024/01/15 10:41:53;;;;;;;6.03;1.60;;;2.30;99.90;;;;;;4861855;29;20389;-47
2024/01/15 10:44:19;;;;;;;8.63;1.50;;;2.40;99.90;;;;;;4880028;29;20076;-48
2024/01/15 10:46:45;;;;;;;5.22;1.17;;;2.40;99.90;;;;;;4881724;29;20045;-47
2024/01/15 10:49:11;;;;;;;5.10;1.20;;;2.30;99.90;;;;;;4882677;29;20127;-47
2024/01/15 10:51:38;;;;;;;5.68;1.40;;;2.30;99.90;;;;;;4880292;29;20061;-46
2024/01/15 10:54:04;;;;;;;4.15;0.80;;;2.30;99.90;;;;;;4883818;29;20056;-46
2024/01/15 10:56:33;;;;;;;5.32;0.90;;;2.30;99.90;;;;;;4879228;29;20129;-48
2024/01/15 10:58:59;;;;;;;4.68;0.95;;;2.20;99.90;;;;;;4882034;29;20048;-47
2024/01/15 11:01:24;;;;;;;6.57;1.00;;;2.30;99.90;;;;;;4882622;29;20500;-49
2024/01/15 11:03:50;;;;;;;4.68;1.02;;;2.40;99.90;;;;;;4881626;29;20045;-46
2024/01/15 11:06:19;;;;;;;6.28;0.93;;;2.50;99.90;;;;;;4882495;29;20049;-47
2024/01/15 11:08:50;;;;;;;9.48;1.27;;;2.50;99.90;;;;;;4882567;29;20048;-46
2024/01/15 11:11:16;;;;;;;6.32;1.40;;;2.60;99.90;;;;;;4882669;29;20141;-47
2024/01/15 11:13:45;;;;;;;5.45;1.42;;;2.60;99.90;;;;;;4882542;29;20105;-46
2024/01/15 11:16:12;;;;;;;10.90;1.48;;;2.70;99.90;;;;;;4872476;29;20080;-46
2024/01/15 11:18:40;;;;;;;8.07;1.75;;;2.70;99.90;;;;;;4882921;29;20072;-46
2024/01/15 11:21:15;;;;;;;6.05;1.55;;;2.60;99.90;;;;;;4879315;29;20045;-47
2024/01/15 11:23:48;;;;;;;8.60;1.45;;;2.50;99.90;;;;;;4882377;29;20048;-47
2024/01/15 11:26:36;;;;;;;9.68;1.77;;;2.50;99.90;;;;;;4882084;29;20112;-45
2024/01/15 11:29:06;;;;;;;8.98;1.60;;;2.40;99.90;;;;;;4878975;29;20484;-45
2024/01/15 11:31:38;;;;;;;10.07;1.52;;;2.40;99.90;;;;;;4884126;29;20049;-46
2024/01/15 11:34:05;;;;;;;8.00;1.35;;;2.40;99.90;;;;;;4882058;29;20061;-46
2024/01/15 11:36:51;;;;;;;9.52;1.38;;;2.30;99.90;;;;;;4882881;29;20073;-47
2024/01/15 11:39:30;;;;;;;11.23;1.77;;;2.30;99.90;;;;;;4873853;29;20133;-46
2024/01/15 11:42:03;;;;;;;6.43;1.33;;;2.40;99.90;;;;;;4878481;29;20052;-46
2024/01/15 11:44:29;;;;;;;9.27;1.45;;;2.30;99.90;;;;;;4877019;29;20064;-46
2024/01/15 11:47:06;;;;;;;5.97;1.17;;;2.30;99.90;;;;;;4889067;29;20499;-47
2024/01/15 11:49:58;;;;;;;6.63;0.93;;;2.20;99.90;;;;;;4886349;29;20041;-45
2024/01/15 11:52:24;;;;;;;5.40;1.15;;;2.30;99.90;;;;;;4879913;29;20500;-46
2024/01/15 11:55:36;;;;;;;4.68;0.95;;;2.20;99.90;;;;;;4882566;29;20055;-46
2024/01/15 11:58:06;;;;;;;4.63;1.10;;;2.30;99.90;;;;;;4835400;29;20056;-46
2024/01/15 12:00:31;;;;;;;3.30;1.00;;;2.30;99.90;;;;;;4835721;29;20531;-46
2024/01/15 12:02:59;;;;;;;1.98;0.63;;;2.20;99.90;;;;;;4835783;29;20120;-46
2024/01/15 12:05:24;;;;;;;4.85;0.95;;;2.30;99.90;;;;;;4836126;29;20073;-46
2024/01/15 12:07:50;;;;;;;2.15;0.65;;;2.20;99.90;;;;;;4820995;29;20076;-45
2024/01/15 12:10:21;;;;;;;4.55;0.82;;;2.20;99.90;;;;;;4835491;29;20501;-46
2024/01/15 12:13:02;;;;;;;2.40;0.65;;;2.20;99.90;;;;;;4838084;29;20057;-46
2024/01/15 12:15:29;;;;;;;4.60;0.65;;;2.20;99.90;;;;;;4840037;29;20083;-46
2024/01/15 12:18:00;;;;;;;2.22;0.70;;;2.30;99.90;;;;;;4822621;29;20102;-46
2024/01/15 12:20:27;;;;;;;3.85;0.70;;;2.30;99.90;;;;;;4838834;29;20091;-46
2024/01/15 12:22:53;;;;;;;3.53;0.70;;;2.40;99.90;;;;;;4824741;29;20048;-46
2024/01/15 12:25:19;;;;;;;2.80;0.85;;;2.50;99.90;;;;;;4839663;29;20053;-46
2024/01/15 12:27:45;;;;;;;5.53;0.90;;;2.50;99.90;;;;;;4837081;29;20473;-46
2024/01/15 12:30:15;;;;;;;8.52;1.17;;;2.50;99.90;;;;;;4837912;29;20141;-46
2024/01/15 12:32:44;;;;;;;4.47;1.17;;;2.40;99.90;;;;;;4869671;29;20512;-46
2024/01/15 12:35:10;;;;;;;5.97;0.95;;;2.30;99.90;;;;;;4878204;29;20047;-47
2024/01/15 12:37:37;;;;;;;9.70;1.30;;;2.10;99.90;;;;;;4877989;29;20419;-46
2024/01/15 12:40:06;;;;;;;4.20;0.70;;;2.00;99.90;;;;;;4876370;29;20468;-46
2024/01/15 12:42:32;;;;;;;4.88;1.17;;;2.00;99.90;;;;;;4877452;29;20049;-47
2024/01/15 12:44:58;;;;;;;5.72;1.00;;;1.90;99.90;;;;;;4878164;29;20052;-46
2024/01/15 12:47:24;;;;;;;6.32;1.15;;;1.80;99.90;;;;;;4881448;29;20409;-46
2024/01/15 12:49:54;;;;;;;4.63;1.02;;;1.90;99.90;;;;;;4877909;29;20400;-46